Terminal Aerodrome Forecast
Issued by NWS

Current Version | Previous Version | Text Only | Print | Product List | Glossary On
Versions: 1 2 3 4 5 6 7 8 9 10 11 12 13 14 15 16 17 18
000
FTUS43 KAPX 172338
TAFPLN
TAF
KPLN 172338Z 1800/1824 14006KT P6SM OVC015
     FM180500 VRB03KT 6SM BR OVC010
     FM180900 00000KT 5SM BR OVC008
     FM181600 23006KT P6SM OVC015=

USA.gov is the U.S. government's official web portal to all federal, state and local government web resources and services.